Time;durP1;ratioP1;P1;durP2;ratioP2;P2;SDS_P1;SDS_P2;PMS_P1;PMS_P2;Temp;Humidity;BMP_temperature;BMP_pressure;BME280_temperature;BME280_humidity;BME280_pressure;Samples;Min_cycle;Max_cycle;Signal;HPM_P1;HPM_P2
2023/07/17 00:02:24;;;;;;;12.00;3.25;;;;;;;;;;4984348;28;20046;-85
2023/07/17 00:04:50;;;;;;;6.35;3.00;;;;;;;;;;4993624;28;20065;-84
2023/07/17 00:07:16;;;;;;;11.48;3.35;;;;;;;;;;4977554;28;20133;-84
2023/07/17 00:09:43;;;;;;;8.40;3.92;;;;;;;;;;4961493;28;20042;-85
2023/07/17 00:12:09;;;;;;;11.55;3.42;;;;;;;;;;4981236;28;20066;-84
2023/07/17 00:14:35;;;;;;;8.07;2.92;;;;;;;;;;4973853;28;20097;-84
2023/07/17 00:17:02;;;;;;;8.70;2.72;;;;;;;;;;4993362;28;20044;-84
2023/07/17 00:19:29;;;;;;;9.43;3.60;;;;;;;;;;4976719;28;20379;-84
2023/07/17 00:21:55;;;;;;;7.35;3.05;;;;;;;;;;4959980;28;20045;-84
2023/07/17 00:24:21;;;;;;;11.02;3.20;;;;;;;;;;4990875;28;20042;-85
2023/07/17 00:26:47;;;;;;;5.63;2.83;;;;;;;;;;4992146;28;20046;-85
2023/07/17 00:29:28;;;;;;;6.45;2.83;;;;;;;;;;4961133;28;20042;-85
2023/07/17 00:31:54;;;;;;;6.38;2.78;;;;;;;;;;4994093;28;20528;-85
2023/07/17 00:34:21;;;;;;;10.65;3.10;;;;;;;;;;4975689;28;20121;-85
2023/07/17 00:36:47;;;;;;;7.72;3.05;;;;;;;;;;4993093;28;20034;-84
2023/07/17 00:39:14;;;;;;;12.77;3.92;;;;;;;;;;4980812;28;20104;-85
2023/07/17 00:41:40;;;;;;;9.98;3.85;;;;;;;;;;5012630;28;20046;-85
2023/07/17 00:44:06;;;;;;;5.97;3.13;;;;;;;;;;4966881;28;20053;-84
2023/07/17 00:46:34;;;;;;;10.55;3.30;;;;;;;;;;4977819;28;20042;-85
2023/07/17 00:49:01;;;;;;;8.90;3.45;;;;;;;;;;4973159;28;20128;-85
2023/07/17 00:51:27;;;;;;;9.35;3.47;;;;;;;;;;4977707;28;20042;-85
2023/07/17 00:53:53;;;;;;;8.18;3.63;;;;;;;;;;4978967;28;20046;-85
2023/07/17 00:56:19;;;;;;;7.22;3.03;;;;;;;;;;4980808;28;20162;-84
2023/07/17 00:58:45;;;;;;;10.27;3.92;;;;;;;;;;4976728;28;20050;-85
2023/07/17 01:01:12;;;;;;;7.63;2.90;;;;;;;;;;4983560;28;20056;-85
2023/07/17 01:03:39;;;;;;;9.73;3.22;;;;;;;;;;4971843;28;20034;-85
2023/07/17 01:06:05;;;;;;;6.68;2.83;;;;;;;;;;4970606;28;20034;-82
2023/07/17 01:08:31;;;;;;;7.95;3.40;;;;;;;;;;4992030;28;20061;-83
2023/07/17 01:10:58;;;;;;;8.40;3.65;;;;;;;;;;4976132;28;20042;-83
2023/07/17 01:13:24;;;;;;;8.55;3.47;;;;;;;;;;4992427;28;20092;-83
2023/07/17 01:15:50;;;;;;;9.43;3.50;;;;;;;;;;4988585;28;20046;-83
2023/07/17 01:18:16;;;;;;;6.82;2.72;;;;;;;;;;4974640;28;20057;-82
2023/07/17 01:20:43;;;;;;;9.65;4.40;;;;;;;;;;4943568;28;20050;-83
2023/07/17 01:23:09;;;;;;;8.40;3.55;;;;;;;;;;4993023;28;20057;-83
2023/07/17 01:25:35;;;;;;;10.75;3.83;;;;;;;;;;4980774;28;20136;-83
2023/07/17 01:28:01;;;;;;;8.38;3.47;;;;;;;;;;4991947;28;20054;-82
2023/07/17 01:30:27;;;;;;;8.75;3.90;;;;;;;;;;4993461;28;20053;-83
2023/07/17 01:32:54;;;;;;;11.25;3.90;;;;;;;;;;4958906;28;20510;-83
2023/07/17 01:35:20;;;;;;;7.78;3.33;;;;;;;;;;4959081;28;20038;-83
2023/07/17 01:37:46;;;;;;;10.30;3.92;;;;;;;;;;5000276;28;20070;-83
2023/07/17 01:40:16;;;;;;;8.23;3.33;;;;;;;;;;4985209;28;20125;-83
2023/07/17 01:42:42;;;;;;;6.38;3.10;;;;;;;;;;4993148;28;20034;-83
2023/07/17 01:45:08;;;;;;;12.00;4.45;;;;;;;;;;4981432;28;20370;-83
2023/07/17 01:47:34;;;;;;;13.20;4.00;;;;;;;;;;4991010;28;20100;-83
2023/07/17 01:50:02;;;;;;;12.38;3.80;;;;;;;;;;4991372;28;20042;-83
2023/07/17 01:52:28;;;;;;;12.27;3.50;;;;;;;;;;4973090;28;20034;-83
2023/07/17 01:54:54;;;;;;;9.65;4.57;;;;;;;;;;4993222;28;20085;-83
2023/07/17 01:57:20;;;;;;;8.52;3.67;;;;;;;;;;4973240;28;20050;-83
2023/07/17 01:59:46;;;;;;;10.77;4.05;;;;;;;;;;4972465;28;20046;-83
2023/07/17 02:02:12;;;;;;;13.13;4.00;;;;;;;;;;4993873;28;20133;-83
2023/07/17 02:04:38;;;;;;;9.77;3.85;;;;;;;;;;4992018;28;20673;-83
2023/07/17 02:07:05;;;;;;;11.63;4.32;;;;;;;;;;4991121;28;20053;-83
2023/07/17 02:09:31;;;;;;;10.70;3.67;;;;;;;;;;4974813;28;20096;-83
2023/07/17 02:11:57;;;;;;;14.30;4.65;;;;;;;;;;4978844;28;20042;-83
2023/07/17 02:14:23;;;;;;;11.68;4.40;;;;;;;;;;4992602;28;20467;-83
2023/07/17 02:16:49;;;;;;;7.38;4.43;;;;;;;;;;4990777;28;20042;-83
2023/07/17 02:19:16;;;;;;;10.75;3.53;;;;;;;;;;4995613;28;20038;-83
2023/07/17 02:21:42;;;;;;;9.75;3.50;;;;;;;;;;4974522;28;20056;-83
2023/07/17 02:24:08;;;;;;;11.48;3.42;;;;;;;;;;4975745;28;20042;-82
2023/07/17 02:26:34;;;;;;;10.38;4.38;;;;;;;;;;4990543;28;20137;-83
2023/07/17 02:29:01;;;;;;;13.82;4.55;;;;;;;;;;4972232;28;20042;-83
2023/07/17 02:31:27;;;;;;;10.88;3.40;;;;;;;;;;4988612;28;20056;-83
2023/07/17 02:33:55;;;;;;;8.00;3.45;;;;;;;;;;4967159;28;20034;-83
2023/07/17 02:36:21;;;;;;;9.20;3.80;;;;;;;;;;4985202;28;20046;-82
2023/07/17 02:38:47;;;;;;;9.98;4.22;;;;;;;;;;4957646;28;20050;-82
2023/07/17 02:41:16;;;;;;;10.95;4.00;;;;;;;;;;4953808;28;20085;-83
2023/07/17 02:43:43;;;;;;;18.13;4.22;;;;;;;;;;4994776;28;20034;-82
2023/07/17 02:46:09;;;;;;;10.25;4.03;;;;;;;;;;4975071;28;20506;-82
2023/07/17 02:48:35;;;;;;;8.65;3.97;;;;;;;;;;4961774;28;20042;-82
2023/07/17 02:51:01;;;;;;;13.30;4.10;;;;;;;;;;4949781;28;20165;-82
2023/07/17 02:53:27;;;;;;;21.58;4.65;;;;;;;;;;4974478;28;20138;-82
2023/07/17 02:55:53;;;;;;;10.48;4.43;;;;;;;;;;4989000;28;20047;-82
2023/07/17 02:58:21;;;;;;;12.15;4.85;;;;;;;;;;4976463;28;20444;-82
2023/07/17 03:00:47;;;;;;;13.00;4.35;;;;;;;;;;4968313;28;20045;-83
2023/07/17 03:03:13;;;;;;;8.80;4.45;;;;;;;;;;4986114;28;20042;-82
2023/07/17 03:05:39;;;;;;;10.90;4.90;;;;;;;;;;4974686;28;20061;-83
2023/07/17 03:08:05;;;;;;;9.65;4.28;;;;;;;;;;4989578;28;20039;-83
2023/07/17 03:10:31;;;;;;;10.18;4.65;;;;;;;;;;4974196;28;20049;-83
2023/07/17 03:12:58;;;;;;;6.40;4.10;;;;;;;;;;4990262;28;20117;-82
2023/07/17 03:15:24;;;;;;;11.77;4.15;;;;;;;;;;4955233;28;20074;-82
2023/07/17 03:17:50;;;;;;;13.50;4.05;;;;;;;;;;4986386;28;20053;-82
2023/07/17 03:20:18;;;;;;;16.75;5.43;;;;;;;;;;4958507;28;20054;-82
2023/07/17 03:22:44;;;;;;;16.00;4.55;;;;;;;;;;4990294;28;20453;-82
2023/07/17 03:25:10;;;;;;;15.13;4.82;;;;;;;;;;4942150;28;20042;-82
2023/07/17 03:27:37;;;;;;;10.65;4.30;;;;;;;;;;4981373;28;20058;-82
2023/07/17 03:30:04;;;;;;;11.13;4.78;;;;;;;;;;4998808;28;20065;-82
2023/07/17 03:32:33;;;;;;;11.20;4.63;;;;;;;;;;4990268;28;20036;-82
2023/07/17 03:34:59;;;;;;;7.38;4.55;;;;;;;;;;4980921;28;20064;-82
2023/07/17 03:37:26;;;;;;;14.27;4.88;;;;;;;;;;4957636;28;20181;-82
2023/07/17 03:39:52;;;;;;;14.57;5.10;;;;;;;;;;4958840;28;20070;-82
2023/07/17 03:42:18;;;;;;;11.15;4.13;;;;;;;;;;4972332;28;20063;-82
2023/07/17 03:44:44;;;;;;;13.70;5.32;;;;;;;;;;4955262;28;20410;-82
2023/07/17 03:47:10;;;;;;;12.65;4.70;;;;;;;;;;5005580;28;20121;-82
2023/07/17 03:49:36;;;;;;;13.80;4.40;;;;;;;;;;4990441;28;20476;-82
2023/07/17 03:52:03;;;;;;;15.25;5.47;;;;;;;;;;4973697;28;20090;-82
2023/07/17 03:54:29;;;;;;;11.48;4.68;;;;;;;;;;4998315;28;20122;-82
2023/07/17 03:56:55;;;;;;;9.73;4.82;;;;;;;;;;4954719;28;20461;-82
2023/07/17 03:59:22;;;;;;;12.68;4.97;;;;;;;;;;4973993;28;20489;-82
2023/07/17 04:01:49;;;;;;;12.25;4.63;;;;;;;;;;4958961;28;20423;-82
2023/07/17 04:04:15;;;;;;;18.77;5.75;;;;;;;;;;4993525;28;20458;-82
2023/07/17 04:06:41;;;;;;;14.25;4.60;;;;;;;;;;4960420;28;20049;-82
2023/07/17 04:09:07;;;;;;;13.00;4.80;;;;;;;;;;4973884;28;20035;-82
2023/07/17 04:11:34;;;;;;;17.13;5.07;;;;;;;;;;4993383;28;20042;-83
2023/07/17 04:14:00;;;;;;;12.48;5.57;;;;;;;;;;4977885;28;20231;-82
2023/07/17 04:16:26;;;;;;;13.52;5.50;;;;;;;;;;4976837;28;20057;-82
2023/07/17 04:18:53;;;;;;;14.02;4.63;;;;;;;;;;4977212;28;20046;-83
2023/07/17 04:21:19;;;;;;;13.38;5.15;;;;;;;;;;4982730;28;20053;-82
2023/07/17 04:23:50;;;;;;;12.80;4.93;;;;;;;;;;4987764;28;20046;-82
2023/07/17 04:26:17;;;;;;;12.18;5.43;;;;;;;;;;4992624;28;20035;-82
2023/07/17 04:28:43;;;;;;;16.55;5.18;;;;;;;;;;4976916;28;20113;-82
2023/07/17 04:31:09;;;;;;;15.70;5.85;;;;;;;;;;4991753;28;20038;-82
2023/07/17 04:33:35;;;;;;;17.00;5.35;;;;;;;;;;4981395;28;20061;-82
2023/07/17 04:36:05;;;;;;;14.82;5.63;;;;;;;;;;4982972;28;20081;-83
2023/07/17 04:38:31;;;;;;;13.07;5.20;;;;;;;;;;4990021;28;20146;-83
2023/07/17 04:40:57;;;;;;;12.45;5.45;;;;;;;;;;4976762;28;20393;-83
2023/07/17 04:43:24;;;;;;;15.77;5.90;;;;;;;;;;4960445;28;20128;-83
2023/07/17 04:45:50;;;;;;;25.42;6.00;;;;;;;;;;4959323;28;20395;-83
2023/07/17 04:48:16;;;;;;;15.77;5.35;;;;;;;;;;4972799;28;20043;-82
2023/07/17 04:50:45;;;;;;;13.63;5.45;;;;;;;;;;4990759;28;20352;-83
2023/07/17 04:53:11;;;;;;;12.90;5.38;;;;;;;;;;4988364;28;20126;-82
2023/07/17 04:55:37;;;;;;;21.05;5.45;;;;;;;;;;4991862;28;20045;-82
2023/07/17 04:58:03;;;;;;;15.20;5.32;;;;;;;;;;4946446;28;20471;-83
2023/07/17 05:00:29;;;;;;;11.55;5.20;;;;;;;;;;4992150;28;20057;-82
2023/07/17 05:02:56;;;;;;;10.77;5.32;;;;;;;;;;4990841;28;20104;-83
2023/07/17 05:05:23;;;;;;;11.93;5.47;;;;;;;;;;4976717;28;20065;-82
2023/07/17 05:07:49;;;;;;;11.35;5.93;;;;;;;;;;4991903;28;20049;-83
2023/07/17 05:10:15;;;;;;;15.65;6.05;;;;;;;;;;4956385;28;20348;-82
2023/07/17 05:12:41;;;;;;;13.48;6.25;;;;;;;;;;4953647;28;20540;-82
2023/07/17 05:15:07;;;;;;;11.38;5.00;;;;;;;;;;4988121;28;20050;-82
2023/07/17 05:17:34;;;;;;;15.73;5.68;;;;;;;;;;4995916;28;20095;-82
2023/07/17 05:20:04;;;;;;;10.70;5.15;;;;;;;;;;4967038;28;20070;-82
2023/07/17 05:22:31;;;;;;;17.70;5.20;;;;;;;;;;4975068;28;20065;-83
2023/07/17 05:24:57;;;;;;;20.20;5.97;;;;;;;;;;4989496;28;20670;-82
2023/07/17 05:27:22;;;;;;;14.18;5.65;;;18.40;91.80;;;;;;4970105;28;20541;-84
2023/07/17 05:29:49;;;;;;;12.68;5.70;;;;;;;;;;4991644;28;20038;-84
2023/07/17 05:32:15;;;;;;;11.95;5.15;;;;;;;;;;4967199;28;20090;-84
2023/07/17 05:34:41;;;;;;;17.98;6.13;;;;;;;;;;4967681;28;20058;-82
2023/07/17 05:37:07;;;;;;;10.63;4.97;;;;;;;;;;4961077;28;20042;-84
2023/07/17 05:39:33;;;;;;;12.30;6.38;;;;;;;;;;4991940;28;20527;-89
2023/07/17 05:41:59;;;;;;;21.45;7.07;;;;;;;;;;4976203;28;20042;-88
2023/07/17 05:44:29;;;;;;;9.35;5.20;;;;;;;;;;4961179;28;20038;-90
2023/07/17 05:47:00;;;;;;;18.40;6.35;;;;;;;;;;4969131;28;20087;-91
2023/07/17 05:49:27;;;;;;;14.05;5.13;;;;;;;;;;4960344;28;20083;-91
2023/07/17 05:51:53;;;;;;;20.40;5.80;;;;;;;;;;4961114;28;20046;-92
2023/07/17 05:54:19;;;;;;;16.83;6.70;;;;;;;;;;4974473;28;20039;-91
2023/07/17 05:56:45;;;;;;;16.38;5.75;;;17.50;99.90;;;;;;4961914;28;20398;-91
2023/07/17 05:59:11;;;;;;;13.57;5.65;;;17.70;99.90;;;;;;4954704;28;20046;-90
2023/07/17 06:01:36;;;;;;;12.75;5.72;;;17.70;99.90;;;;;;4959912;28;20038;-90
2023/07/17 06:04:02;;;;;;;14.98;6.03;;;17.80;99.90;;;;;;4982702;28;20038;-90
2023/07/17 06:06:28;;;;;;;10.38;5.70;;;17.80;99.90;;;;;;4985208;28;20038;-89
2023/07/17 06:08:54;;;;;;;13.25;5.28;;;17.80;99.90;;;;;;4960057;28;20042;-88
2023/07/17 06:11:19;;;;;;;12.32;5.22;;;17.80;99.90;;;;;;4968477;28;20100;-89
2023/07/17 06:13:45;;;;;;;17.77;7.25;;;17.70;99.90;;;;;;4974975;28;20486;-89
2023/07/17 06:16:11;;;;;;;18.65;5.85;;;17.70;99.90;;;;;;4961673;28;20772;-82
2023/07/17 06:18:37;;;;;;;14.60;6.90;;;17.70;99.90;;;;;;4946038;28;20046;-84
2023/07/17 06:21:03;;;;;;;15.57;6.35;;;17.70;99.90;;;;;;4973054;28;20411;-84
2023/07/17 06:23:28;;;;;;;16.50;6.53;;;17.70;99.90;;;;;;4956877;28;20034;-84
2023/07/17 06:25:54;;;;;;;12.68;5.03;;;17.70;99.90;;;;;;4956714;28;20418;-82
2023/07/17 06:28:20;;;;;;;12.32;5.75;;;17.60;99.90;;;;;;4965088;28;20101;-83
2023/07/17 06:30:46;;;;;;;13.25;5.25;;;17.70;99.90;;;;;;4988601;28;20134;-82
2023/07/17 06:33:13;;;;;;;11.13;4.60;;;17.60;99.90;;;;;;4987227;28;20064;-82
2023/07/17 06:35:39;;;;;;;8.18;4.97;;;17.60;99.90;;;;;;4961916;28;20113;-82
2023/07/17 06:38:05;;;;;;;16.50;5.13;;;17.60;99.90;;;;;;4973099;28;20134;-81
2023/07/17 06:40:30;;;;;;;9.43;4.32;;;17.70;99.90;;;;;;4954727;28;20093;-82
2023/07/17 06:42:56;;;;;;;11.40;4.05;;;17.70;99.90;;;;;;4957529;28;20166;-83
2023/07/17 06:45:22;;;;;;;8.73;4.30;;;;;;;;;;4962231;28;20077;-83
2023/07/17 06:47:48;;;;;;;9.88;4.70;;;;;;;;;;4966819;28;20486;-83
2023/07/17 06:50:15;;;;;;;9.10;4.30;;;;;;;;;;4989777;28;20039;-83
2023/07/17 06:52:41;;;;;;;15.05;5.22;;;;;;;;;;4989735;28;20046;-81
2023/07/17 06:55:08;;;;;;;12.82;5.43;;;;;;;;;;4972659;28;20312;-81
2023/07/17 06:57:34;;;;;;;7.63;4.22;;;;;;;;;;4956696;28;20046;-80
2023/07/17 07:00:00;;;;;;;13.23;4.97;;;;;;;;;;4956705;28;20064;-81
2023/07/17 07:02:26;;;;;;;11.52;4.05;;;;;;;;;;4973041;28;20406;-81
2023/07/17 07:04:52;;;;;;;12.98;4.30;;;;;;;;;;4972499;28;20050;-82
2023/07/17 07:07:19;;;;;;;14.70;4.45;;;;;;;;;;4969425;28;20532;-81
2023/07/17 07:09:45;;;;;;;8.25;3.95;;;;;;;;;;4984612;28;20042;-81
2023/07/17 07:12:11;;;;;;;5.63;3.30;;;;;;;;;;4968013;28;20102;-81
2023/07/17 07:14:37;;;;;;;7.13;3.67;;;;;;;;;;4954493;28;20529;-81
2023/07/17 07:17:03;;;;;;;8.88;3.00;;;;;;;;;;4962625;28;20039;-81
2023/07/17 07:19:29;;;;;;;7.35;3.08;;;;;;;;;;4987636;28;20046;-81
2023/07/17 07:21:55;;;;;;;6.65;3.13;;;;;;;;;;4942955;28;20038;-83
2023/07/17 07:24:21;;;;;;;8.07;3.25;;;;;;;;;;4968941;28;20050;-82
2023/07/17 07:26:47;;;;;;;8.57;2.70;;;;;;;;;;4939307;28;20101;-81
2023/07/17 07:29:14;;;;;;;6.43;4.03;;;;;;;;;;4987568;28;20074;-83
2023/07/17 07:31:40;;;;;;;16.33;3.47;;;17.70;99.90;;;;;;4969289;28;20038;-83
2023/07/17 07:34:06;;;;;;;7.60;3.47;;;18.30;99.80;;;;;;4987999;28;20058;-84
2023/07/17 07:36:31;;;;;;;8.25;3.13;;;18.30;99.70;;;;;;4957369;28;20162;-84
2023/07/17 07:38:57;;;;;;;3.65;2.80;;;18.30;99.50;;;;;;4991799;28;20058;-83
2023/07/17 07:41:23;;;;;;;10.80;3.75;;;18.30;99.20;;;;;;4959991;28;20137;-83
2023/07/17 07:43:48;;;;;;;8.13;4.20;;;18.30;99.10;;;;;;4960055;28;20121;-83
2023/07/17 07:46:14;;;;;;;8.27;2.97;;;18.40;99.10;;;;;;4978486;28;20049;-82
2023/07/17 07:48:40;;;;;;;9.48;3.33;;;18.40;98.90;;;;;;4990283;28;20108;-81
2023/07/17 07:51:06;;;;;;;9.13;2.95;;;18.40;98.60;;;;;;4943278;28;20070;-82
2023/07/17 07:53:32;;;;;;;10.52;3.67;;;18.40;98.20;;;;;;4991209;28;20034;-80
2023/07/17 07:56:00;;;;;;;7.43;3.85;;;18.40;98.10;;;;;;4971814;28;20406;-82
2023/07/17 07:58:26;;;;;;;10.43;3.53;;;18.50;98.00;;;;;;4973582;28;20047;-82
2023/07/17 08:00:51;;;;;;;12.95;3.42;;;18.50;97.90;;;;;;4980927;28;20050;-82
2023/07/17 08:03:17;;;;;;;7.10;3.85;;;18.50;97.80;;;;;;4939975;28;20093;-81
2023/07/17 08:05:43;;;;;;;8.02;3.00;;;18.50;97.70;;;;;;4975309;28;20105;-81
2023/07/17 08:08:08;;;;;;;11.63;3.20;;;18.60;97.60;;;;;;4938698;28;20061;-83
2023/07/17 08:10:37;;;;;;;7.05;2.95;;;18.60;97.40;;;;;;4941086;28;20053;-83
2023/07/17 08:13:04;;;;;;;8.23;3.72;;;18.60;97.00;;;;;;4954792;28;20187;-83
2023/07/17 08:15:30;;;;;;;11.02;3.92;;;18.60;96.80;;;;;;4975526;28;20048;-83
2023/07/17 08:17:56;;;;;;;7.07;3.65;;;18.70;96.50;;;;;;4974924;28;20042;-83
2023/07/17 08:20:22;;;;;;;10.38;3.50;;;18.70;96.50;;;;;;4972752;28;20130;-83
2023/07/17 08:22:50;;;;;;;7.75;2.88;;;18.80;96.70;;;;;;4973182;28;20046;-83
2023/07/17 08:25:16;;;;;;;6.32;3.28;;;;;;;;;;4975860;28;20097;-83
2023/07/17 08:27:42;;;;;;;8.63;3.35;;;;;;;;;;4991320;28;20145;-83
2023/07/17 08:30:08;;;;;;;10.98;2.95;;;;;;;;;;4961309;28;20410;-84
2023/07/17 08:32:34;;;;;;;9.98;3.60;;;;;;;;;;4992215;28;20042;-84
2023/07/17 08:35:00;;;;;;;6.18;3.28;;;;;;;;;;4974683;28;20042;-83
2023/07/17 08:37:26;;;;;;;4.45;3.33;;;;;;;;;;4959309;28;20711;-83
2023/07/17 08:39:52;;;;;;;8.15;4.00;;;;;;;;;;4961745;28;20124;-84
2023/07/17 08:42:19;;;;;;;7.93;3.25;;;;;;;;;;4991672;28;20470;-84
2023/07/17 08:44:45;;;;;;;5.60;2.80;;;;;;;;;;4977093;28;20165;-85
2023/07/17 08:47:12;;;;;;;5.60;2.60;;;;;;;;;;4941948;28;20077;-82
2023/07/17 08:49:39;;;;;;;10.00;3.25;;;;;;;;;;4975105;28;20035;-82
2023/07/17 08:52:06;;;;;;;7.22;2.90;;;;;;;;;;4991224;28;20174;-82
2023/07/17 08:54:32;;;;;;;11.60;3.15;;;;;;;;;;4970432;28;20042;-82
2023/07/17 08:57:02;;;;;;;9.35;2.67;;;;;;;;;;4979412;28;20054;-83
2023/07/17 08:59:29;;;;;;;6.57;3.00;;;;;;;;;;4958873;28;20113;-83
2023/07/17 09:01:56;;;;;;;6.35;2.50;;;;;;;;;;4973759;28;20081;-83
2023/07/17 09:04:22;;;;;;;9.05;3.63;;;;;;;;;;4974500;28;20054;-84
2023/07/17 09:06:50;;;;;;;12.93;3.88;;;;;;;;;;4971694;28;20405;-84
2023/07/17 09:09:18;;;;;;;7.05;2.83;;;;;;;;;;4960076;28;20042;-85
2023/07/17 09:11:44;;;;;;;4.28;2.50;;;;;;;;;;4972971;28;20041;-84
2023/07/17 09:14:11;;;;;;;6.85;2.63;;;;;;;;;;4979205;28;20046;-84
2023/07/17 09:16:40;;;;;;;7.35;2.55;;;;;;;;;;4939500;28;20061;-82
2023/07/17 09:19:06;;;;;;;6.72;2.17;;;;;;;;;;4950240;28;20050;-84
2023/07/17 09:21:32;;;;;;;6.97;2.85;;;;;;;;;;4974389;28;20367;-84
2023/07/17 09:23:58;;;;;;;6.75;2.60;;;;;;;;;;4958111;28;20042;-85
2023/07/17 09:26:25;;;;;;;5.55;2.15;;;;;;;;;;4957992;28;20047;-83
2023/07/17 09:28:53;;;;;;;4.22;2.90;;;;;;;;;;4960075;28;20047;-83
2023/07/17 09:31:27;;;;;;;5.15;2.03;;;;;;;;;;4972206;28;20117;-85
2023/07/17 09:34:00;;;;;;;7.45;2.75;;;;;;;;;;4962569;28;20092;-85
2023/07/17 09:36:26;;;;;;;6.70;2.53;;;;;;;;;;4934055;28;20046;-83
2023/07/17 09:38:54;;;;;;;6.43;2.90;;;;;;;;;;4935187;28;20069;-86
2023/07/17 09:41:24;;;;;;;5.95;2.47;;;;;;;;;;4957865;28;20034;-83
2023/07/17 09:44:04;;;;;;;5.40;2.67;;;;;;;;;;4972910;28;20097;-83
2023/07/17 09:46:31;;;;;;;5.05;2.53;;;;;;;;;;4956001;28;20534;-84
2023/07/17 09:48:58;;;;;;;9.23;3.55;;;;;;;;;;4957047;28;20060;-89
2023/07/17 09:51:24;;;;;;;4.60;2.60;;;;;;;;;;4976172;28;20034;-84
2023/07/17 09:53:50;;;;;;;4.78;2.50;;;;;;;;;;4971534;28;20095;-85
2023/07/17 09:56:18;;;;;;;6.72;2.60;;;;;;;;;;4974911;28;20046;-83
2023/07/17 09:58:48;;;;;;;6.20;2.95;;;18.90;96.60;;;;;;4973286;28;20061;-84
2023/07/17 10:01:19;;;;;;;7.47;3.30;;;;;;;;;;4990057;28;20370;-82
2023/07/17 10:03:49;;;;;;;5.80;2.58;;;;;;;;;;4957183;28;20038;-84
2023/07/17 10:06:16;;;;;;;5.50;2.60;;;;;;;;;;4983632;28;20073;-84
2023/07/17 10:08:44;;;;;;;5.10;2.75;;;;;;;;;;4987021;28;20072;-81
2023/07/17 10:11:10;;;;;;;11.27;2.50;;;;;;;;;;4934214;28;20070;-81
2023/07/17 10:13:37;;;;;;;7.90;3.30;;;;;;;;;;4950131;28;20103;-82
2023/07/17 10:16:03;;;;;;;4.78;2.15;;;20.40;92.40;;;;;;4962555;28;20046;-81
2023/07/17 10:18:30;;;;;;;8.52;2.58;;;;;;;;;;4955493;28;20442;-79
2023/07/17 10:20:57;;;;;;;7.32;3.38;;;;;;;;;;4973592;28;20117;-83
2023/07/17 10:23:24;;;;;;;5.95;2.80;;;;;;;;;;4932928;28;20038;-84
2023/07/17 10:25:50;;;;;;;10.00;2.97;;;;;;;;;;4955705;28;20042;-80
2023/07/17 10:28:29;;;;;;;6.72;2.67;;;;;;;;;;4950713;28;20104;-81
2023/07/17 10:30:55;;;;;;;7.38;2.55;;;;;;;;;;4963202;28;20061;-83
2023/07/17 10:33:22;;;;;;;6.70;3.28;;;;;;;;;;4972735;28;20066;-90
2023/07/17 10:35:55;;;;;;;8.15;3.60;;;20.80;91.60;;;;;;4966102;28;20050;-86
2023/07/17 10:38:25;;;;;;;5.53;2.90;;;;;;;;;;4972848;28;20054;-86
2023/07/17 10:41:11;;;;;;;7.10;3.00;;;;;;;;;;4960061;28;20460;-88
2023/07/17 10:43:38;;;;;;;12.13;2.67;;;;;;;;;;4963109;28;20042;-86
2023/07/17 10:46:11;;;;;;;5.65;3.13;;;;;;;;;;4973608;28;20096;-80
2023/07/17 10:48:37;;;;;;;7.07;2.83;;;;;;;;;;4970173;28;20057;-80
2023/07/17 10:51:03;;;;;;;7.93;3.65;;;;;;;;;;4952386;28;20428;-82
2023/07/17 10:53:30;;;;;;;7.20;3.28;;;;;;;;;;4957670;28;20359;-84
2023/07/17 10:55:56;;;;;;;6.55;2.88;;;;;;;;;;4970954;28;20359;-83
2023/07/17 10:58:23;;;;;;;5.68;2.22;;;;;;;;;;4970062;28;20578;-83
2023/07/17 11:00:50;;;;;;;7.47;2.92;;;;;;;;;;4984997;28;20034;-81
2023/07/17 11:03:17;;;;;;;5.72;3.10;;;;;;;;;;4986680;28;20121;-80
2023/07/17 11:05:44;;;;;;;7.30;3.20;;;;;;;;;;4972796;28;20034;-81
2023/07/17 11:08:12;;;;;;;7.03;2.58;;;;;;;;;;4959763;28;20049;-82
2023/07/17 11:10:40;;;;;;;4.95;2.85;;;;;;;;;;4982499;28;20038;-85
2023/07/17 11:13:07;;;;;;;6.60;2.78;;;;;;;;;;4973361;28;20043;-83
2023/07/17 11:15:34;;;;;;;6.90;3.03;;;21.20;90.50;;;;;;4977908;28;20124;-84
2023/07/17 11:18:01;;;;;;;6.95;3.15;;;21.70;89.40;;;;;;4975925;28;20150;-83
2023/07/17 11:20:28;;;;;;;8.45;3.38;;;21.70;89.50;;;;;;4956775;28;20042;-82
2023/07/17 11:22:54;;;;;;;5.32;3.63;;;21.70;89.50;;;;;;4962403;28;20061;-81
2023/07/17 11:25:20;;;;;;;5.78;2.42;;;21.70;89.50;;;;;;4974352;28;20589;-83
2023/07/17 11:27:46;;;;;;;7.25;2.88;;;21.60;89.50;;;;;;4962920;28;20095;-88
2023/07/17 11:30:26;;;;;;;6.50;2.78;;;21.60;89.30;;;;;;4949553;28;20039;-90
2023/07/17 11:33:00;;;;;;;12.20;3.03;;;21.60;88.50;;;;;;4960775;28;20121;-86
2023/07/17 11:35:47;;;;;;;8.05;3.10;;;21.50;88.60;;;;;;4963704;28;20046;-86
2023/07/17 11:38:18;;;;;;;8.07;3.30;;;21.50;88.40;;;;;;4954953;28;20057;-78
2023/07/17 11:41:02;;;;;;;10.25;3.08;;;21.60;89.20;;;;;;4981023;28;20046;-81
2023/07/17 11:43:31;;;;;;;5.85;2.83;;;21.70;89.60;;;;;;4982850;28;20038;-78
2023/07/17 11:46:03;;;;;;;4.65;3.22;;;21.70;89.40;;;;;;4990282;28;20474;-81
2023/07/17 11:48:33;;;;;;;10.43;2.70;;;21.60;88.60;;;;;;4957854;28;20101;-84
2023/07/17 11:51:03;;;;;;;4.70;2.80;;;21.70;87.40;;;;;;4991135;28;20526;-85
2023/07/17 11:53:29;;;;;;;4.47;2.13;;;21.70;87.50;;;;;;4970602;28;20185;-81
2023/07/17 11:55:55;;;;;;;5.18;2.13;;;21.70;87.50;;;;;;4973638;28;20100;-83
2023/07/17 11:58:25;;;;;;;5.13;2.85;;;21.90;87.80;;;;;;4974602;28;20038;-78
2023/07/17 12:00:53;;;;;;;5.43;2.83;;;22.00;87.60;;;;;;4989875;28;20057;-76
2023/07/17 12:03:19;;;;;;;6.40;2.20;;;22.00;86.80;;;;;;4982794;28;20081;-76
2023/07/17 12:05:46;;;;;;;7.07;1.98;;;22.10;86.10;;;;;;4991957;28;20538;-88
2023/07/17 12:08:12;;;;;;;6.07;2.70;;;22.20;85.60;;;;;;4958068;28;20125;-81
2023/07/17 12:10:38;;;;;;;11.38;2.80;;;22.30;85.00;;;;;;4944916;28;20467;-81
2023/07/17 12:13:06;;;;;;;7.57;3.05;;;22.30;84.20;;;;;;4972142;28;20034;-87
2023/07/17 12:15:32;;;;;;;5.80;2.63;;;22.40;83.70;;;;;;4964132;28;20042;-80
2023/07/17 12:17:58;;;;;;;5.60;2.50;;;22.40;83.10;;;;;;4971447;28;20045;-82
2023/07/17 12:20:25;;;;;;;5.30;2.30;;;;;;;;;;4972741;28;20619;-82
2023/07/17 12:22:53;;;;;;;4.22;2.55;;;;;;;;;;4974615;28;20053;-89
2023/07/17 12:25:19;;;;;;;5.78;2.55;;;;;;;;;;4967950;28;20176;-85
2023/07/17 12:27:46;;;;;;;3.85;2.50;;;;;;;;;;4955366;28;20081;-85
2023/07/17 12:30:13;;;;;;;6.82;2.92;;;;;;;;;;4974043;28;20042;-85
2023/07/17 12:32:41;;;;;;;4.78;2.95;;;;;;;;;;4966640;28;20173;-88
2023/07/17 12:35:08;;;;;;;7.32;2.97;;;;;;;;;;4933152;28;20175;-89
2023/07/17 12:37:34;;;;;;;4.68;2.75;;;22.50;82.70;;;;;;4923297;28;20080;-89
2023/07/17 12:40:00;;;;;;;6.05;2.70;;;;;;;;;;4936239;28;20176;-76
2023/07/17 12:42:29;;;;;;;5.22;2.65;;;;;;;;;;4988656;28;20101;-89
2023/07/17 12:44:55;;;;;;;7.32;2.75;;;;;;;;;;4957544;28;20454;-84
2023/07/17 12:47:22;;;;;;;5.22;2.08;;;;;;;;;;4976383;28;20450;-79
2023/07/17 12:49:48;;;;;;;3.40;2.25;;;;;;;;;;4972681;28;20049;-82
2023/07/17 12:52:15;;;;;;;4.75;2.30;;;;;;;;;;4955804;28;20066;-87
2023/07/17 12:54:41;;;;;;;7.13;2.90;;;;;;;;;;4967498;28;20540;-81
2023/07/17 12:57:07;;;;;;;6.15;2.08;;;;;;;;;;4989524;28;20100;-76
2023/07/17 12:59:33;;;;;;;6.10;2.35;;;;;;;;;;4987280;28;20046;-87
2023/07/17 13:01:59;;;;;;;10.63;3.10;;;;;;;;;;4959902;28;20050;-89
2023/07/17 13:04:26;;;;;;;7.10;3.30;;;;;;;;;;4974958;28;20057;-89
2023/07/17 13:06:52;;;;;;;6.97;2.88;;;;;;;;;;4974083;28;20057;-89
2023/07/17 13:09:18;;;;;;;5.53;2.17;;;;;;;;;;4971866;28;20628;-88
2023/07/17 13:11:44;;;;;;;7.15;3.35;;;;;;;;;;4968283;28;20084;-84
2023/07/17 13:14:10;;;;;;;3.85;2.05;;;;;;;;;;4958466;28;20046;-87
2023/07/17 13:16:36;;;;;;;7.10;2.55;;;;;;;;;;4970660;28;20049;-87
2023/07/17 13:19:02;;;;;;;5.78;2.70;;;;;;;;;;4957756;28;20042;-79
2023/07/17 13:21:28;;;;;;;7.85;3.25;;;;;;;;;;4990214;28;20038;-77
2023/07/17 13:23:55;;;;;;;6.05;2.90;;;;;;;;;;4986179;28;20034;-77
2023/07/17 13:26:23;;;;;;;5.20;2.40;;;;;;;;;;4976467;28;20372;-88
2023/07/17 13:28:50;;;;;;;4.30;2.25;;;;;;;;;;4951011;28;20455;-88
2023/07/17 13:31:16;;;;;;;5.93;2.63;;;;;;;;;;4956997;28;20129;-88
2023/07/17 13:33:42;;;;;;;5.07;2.15;;;;;;;;;;4955098;28;20094;-84
2023/07/17 13:36:08;;;;;;;5.45;2.60;;;;;;;;;;4943675;28;20096;-86
2023/07/17 13:38:34;;;;;;;3.85;2.20;;;;;;;;;;4957061;28;20495;-86
2023/07/17 13:41:02;;;;;;;5.30;2.17;;;;;;;;;;4973515;28;20046;-86
2023/07/17 13:43:28;;;;;;;4.18;2.47;;;;;;;;;;4988188;28;20125;-87
2023/07/17 13:45:54;;;;;;;4.22;2.35;;;;;;;;;;4988438;28;20046;-87
2023/07/17 13:48:20;;;;;;;5.63;2.50;;;;;;;;;;4968290;28;20053;-87
2023/07/17 13:50:46;;;;;;;5.88;3.22;;;;;;;;;;4946977;28;20455;-85
2023/07/17 13:53:12;;;;;;;4.50;2.60;;;;;;;;;;4948067;28;20084;-84
2023/07/17 13:55:39;;;;;;;7.15;2.10;;;;;;;;;;4942186;28;20209;-85
2023/07/17 13:58:05;;;;;;;7.35;2.47;;;;;;;;;;4934264;28;20149;-88
2023/07/17 14:00:31;;;;;;;7.25;3.25;;;;;;;;;;4977836;28;20074;-88
2023/07/17 14:02:58;;;;;;;6.53;2.30;;;;;;;;;;4958783;28;20131;-88
2023/07/17 14:05:24;;;;;;;3.72;1.98;;;;;;;;;;4975864;28;20606;-81
2023/07/17 14:07:50;;;;;;;5.50;2.80;;;;;;;;;;4959149;28;20038;-91
2023/07/17 14:10:16;;;;;;;4.80;2.15;;;;;;;;;;4974477;28;20483;-90